KLYO/LYO METAR and TAF weather

Enter ICAO airport designator
Station Type Date Time Source
KLYO METAR 2019/10/15 03:35 UTC NOAA

KLYO 150335Z AUTO 11005KT 10SM CLR 17/12 A2985 RMK AO2 T01670118


Station Type Date Time Source
KLYO Decoded METAR 2019/10/15 03:35 UTC NOAA

Station name not available
Oct 14, 2019 - 11:35 PM EDT / 2019.10.15 0335 UTC
Wind: from the ESE (110 degrees) at 6 MPH (5 KT):0
Visibility: 10 mile(s):0
Sky conditions: clear
Temperature: 62.1 F (16.7 C)
Dew Point: 53.2 F (11.8 C)
Relative Humidity: 72%
Pressure (altimeter): 29.85 in. Hg (1010 hPa)
ob: KLYO 150335Z AUTO 11005KT 10SM CLR 17/12 A2985 RMK AO2 T01670118
cycle: 3

Station Type Date Time Source
KLYO TAF UTC NOAA

Error!

Example: see airport list